Time;durP1;ratioP1;P1;durP2;ratioP2;P2;SDS_P1;SDS_P2;PMS_P1;PMS_P2;Temp;Humidity;BMP_temperature;BMP_pressure;BME280_temperature;BME280_humidity;BME280_pressure;Samples;Min_cycle;Max_cycle;Signal;HPM_P1;HPM_P2
2023/11/05 00:01:53;;;;;;;3.45;1.33;;;;;;;;;;6153550;23;20740;-91
2023/11/05 00:04:59;;;;;;;1.88;1.05;;;;;;;;;;6169449;23;20184;-91
2023/11/05 00:08:05;;;;;;;4.20;1.20;;;;;;;;;;6172355;23;20161;-91
2023/11/05 00:11:10;;;;;;;1.88;1.02;;;;;;;;;;6173209;23;20172;-91
2023/11/05 00:14:17;;;;;;;1.48;1.02;;;;;;;;;;6171503;23;20185;-92
2023/11/05 00:17:23;;;;;;;1.40;0.90;;;;;;;;;;6170346;23;20188;-92
2023/11/05 00:20:28;;;;;;;1.60;0.88;;;;;;;;;;6173029;23;20160;-92
2023/11/05 00:23:33;;;;;;;1.88;1.10;;;;;;;;;;6170767;23;20593;-91
2023/11/05 00:26:38;;;;;;;2.38;1.20;;;;;;;;;;6171896;23;20171;-91
2023/11/05 00:29:46;;;;;;;3.30;1.35;;;;;;;;;;6170879;23;20199;-92
2023/11/05 00:32:51;;;;;;;3.05;1.40;;;;;;;;;;6171209;23;20315;-92
2023/11/05 00:35:57;;;;;;;2.05;1.20;;;;;;;;;;6170681;23;20176;-90
2023/11/05 00:39:02;;;;;;;2.28;1.20;;;;;;;;;;6170778;23;20172;-92
2023/11/05 00:42:08;;;;;;;2.47;1.08;;;;;;;;;;6171416;23;20164;-92
2023/11/05 00:45:15;;;;;;;2.38;1.30;;;;;;;;;;6171202;23;20176;-93
2023/11/05 00:48:20;;;;;;;2.42;1.00;;;;;;;;;;6170809;23;20244;-89
2023/11/05 00:51:26;;;;;;;1.67;1.15;;;;;;;;;;6171382;23;20184;-92
2023/11/05 00:54:31;;;;;;;3.45;1.27;;;;;;;;;;6170389;23;20200;-90
2023/11/05 00:57:36;;;;;;;3.75;1.30;;;;;;;;;;6169944;23;20176;-89
2023/11/05 01:00:47;;;;;;;2.45;1.50;;;;;;;;;;6170309;23;20176;-92
2023/11/05 01:03:52;;;;;;;1.63;1.00;;;;;;;;;;6168821;23;20215;-91
2023/11/05 01:06:58;;;;;;;6.68;1.42;;;;;;;;;;6170395;23;20172;-90
2023/11/05 01:10:03;;;;;;;2.60;1.10;;;;;;;;;;6168016;23;20200;-90
2023/11/05 01:13:08;;;;;;;2.00;1.10;;;;;;;;;;6170132;23;20204;-91
2023/11/05 01:16:15;;;;;;;2.10;1.02;;;;;;;;;;6167690;23;20168;-91
2023/11/05 01:19:21;;;;;;;1.75;1.08;;;;;;;;;;6167560;23;20216;-90
2023/11/05 01:22:27;;;;;;;2.85;1.10;;;;;;;;;;6168756;23;20236;-90
2023/11/05 01:25:32;;;;;;;6.35;1.05;;;;;;;;;;6170826;23;20169;-90
2023/11/05 01:28:38;;;;;;;2.17;0.90;;;;;;;;;;6171219;23;20172;-94
2023/11/05 01:31:48;;;;;;;1.52;0.93;;;;;;;;;;6188106;23;20185;-92
2023/11/05 01:34:53;;;;;;;3.05;1.10;;;;;;;;;;6170017;23;20172;-90
2023/11/05 01:37:58;;;;;;;1.58;0.90;;;;;;;;;;6169440;23;20156;-93
2023/11/05 01:41:03;;;;;;;2.85;0.98;;;;;;;;;;6169663;23;20160;-91
2023/11/05 01:44:09;;;;;;;1.75;1.08;;;;;;;;;;6169785;23;20168;-90
2023/11/05 01:47:16;;;;;;;1.90;0.90;;;;;;;;;;6168815;23;20160;-93
2023/11/05 01:50:23;;;;;;;2.00;0.90;;;;;;;;;;6168818;23;20191;-90
2023/11/05 01:53:28;;;;;;;2.03;1.10;;;;;;;;;;6170153;23;20185;-91
2023/11/05 01:56:33;;;;;;;2.47;1.10;;;;;;;;;;6169936;23;20169;-92
2023/11/05 01:59:38;;;;;;;2.05;0.90;;;;;;;;;;6169351;23;20180;-93
2023/11/05 02:02:49;;;;;;;4.15;1.00;;;;;;;;;;6170975;23;20161;-94
2023/11/05 02:05:54;;;;;;;2.40;1.00;;;;;;;;;;6171545;23;20799;-91
2023/11/05 02:08:59;;;;;;;6.43;1.10;;;;;;;;;;6171016;23;20160;-90
2023/11/05 02:12:04;;;;;;;2.80;1.23;;;;;;;;;;6170337;23;20176;-91
2023/11/05 02:15:10;;;;;;;6.65;1.33;;;;;;;;;;6171181;23;20168;-91
2023/11/05 02:18:17;;;;;;;3.00;1.13;;;;;;;;;;6188284;23;20185;-91
2023/11/05 02:21:26;;;;;;;4.00;1.60;;;;;;;;;;6171063;23;20168;-92
2023/11/05 02:24:33;;;;;;;1.90;1.10;;;;;;;;;;6187244;23;20165;-91
2023/11/05 02:27:38;;;;;;;4.47;1.20;;;;;;;;;;6185626;23;20497;-92
2023/11/05 02:30:43;;;;;;;3.53;1.00;;;;;;;;;;6169379;23;20179;-91
2023/11/05 02:33:48;;;;;;;4.07;1.10;;;;;;;;;;6169135;23;20172;-92
2023/11/05 02:36:53;;;;;;;2.35;1.08;;;;;;;;;;6187358;23;20180;-93
2023/11/05 02:40:00;;;;;;;3.97;1.10;;;;;;;;;;6168510;23;20172;-91
2023/11/05 02:43:06;;;;;;;3.10;1.20;;;;;;;;;;6169919;23;20184;-92
2023/11/05 02:46:11;;;;;;;4.35;1.30;;;;;;;;;;6169781;23;20196;-93
2023/11/05 02:49:16;;;;;;;1.63;1.05;;;;;;;;;;6169952;23;20640;-93
2023/11/05 02:52:22;;;;;;;4.15;1.17;;;;;;;;;;6170782;23;20172;-92
2023/11/05 02:55:28;;;;;;;2.80;1.25;;;;;;;;;;6170511;23;20164;-92
2023/11/05 02:58:34;;;;;;;2.33;1.25;;;;;;;;;;6169859;23;20153;-92
2023/11/05 03:01:40;;;;;;;2.97;1.20;;;;;;;;;;6171236;23;20509;-92
2023/11/05 03:04:45;;;;;;;2.38;1.20;;;;;;;;;;6170739;23;20192;-91
2023/11/05 03:07:50;;;;;;;2.25;1.38;;;;;;;;;;6171047;23;20219;-91
2023/11/05 03:10:56;;;;;;;2.78;1.13;;;;;;;;;;6169665;23;20236;-92
2023/11/05 03:14:01;;;;;;;2.88;1.00;;;;;;;;;;6169927;23;20241;-90
2023/11/05 03:17:07;;;;;;;1.60;1.20;;;;;;;;;;6169070;23;20169;-92
2023/11/05 03:20:14;;;;;;;2.33;1.17;;;;;;;;;;6169420;23;20593;-93
2023/11/05 03:23:19;;;;;;;2.80;1.60;;;;;;;;;;6169630;23;20169;-91
2023/11/05 03:26:25;;;;;;;2.90;1.25;;;;;;;;;;6170016;23;20179;-90
2023/11/05 03:29:30;;;;;;;2.08;1.10;;;;;;;;;;6170866;23;20201;-90
2023/11/05 03:32:35;;;;;;;1.80;1.20;;;;;;;;;;6187469;23;20799;-92
2023/11/05 03:35:43;;;;;;;2.30;1.20;;;;;;;;;;6169792;23;20152;-91
2023/11/05 03:38:48;;;;;;;1.80;1.15;;;;;;;;;;6169598;23;20169;-93
2023/11/05 03:41:55;;;;;;;4.97;1.30;;;;;;;;;;6169494;23;20168;-90
2023/11/05 03:45:00;;;;;;;5.18;1.50;;;;;;;;;;6169188;23;20148;-92
2023/11/05 03:48:07;;;;;;;2.50;1.10;;;;;;;;;;6170615;23;20168;-92
2023/11/05 03:51:16;;;;;;;2.75;1.30;;;;;;;;;;6187821;23;20191;-91
2023/11/05 03:54:22;;;;;;;2.97;1.27;;;;;;;;;;6171059;23;20152;-93
2023/11/05 03:57:28;;;;;;;3.53;1.10;;;;;;;;;;6169849;23;20177;-92
2023/11/05 04:00:34;;;;;;;2.58;1.52;;;;;;;;;;6169200;23;20224;-94
2023/11/05 04:03:40;;;;;;;2.38;1.50;;;;;;;;;;6169589;23;20248;-91
2023/11/05 04:06:45;;;;;;;2.03;1.48;;;;;;;;;;6151057;23;20602;-92
2023/11/05 04:09:50;;;;;;;2.40;1.50;;;;;;;;;;6149864;23;20679;-90
2023/11/05 04:12:57;;;;;;;1.63;1.23;;;;;;;;;;6149047;23;20225;-92
2023/11/05 04:16:02;;;;;;;2.50;1.40;;;;;;;;;;6151125;23;20172;-91
2023/11/05 04:19:10;;;;;;;2.47;1.40;;;;;;;;;;6151359;23;20170;-91
2023/11/05 04:22:16;;;;;;;2.00;1.25;;;;;;;;;;6150870;23;20193;-92
2023/11/05 04:25:20;;;;;;;3.50;1.30;;;;;;;;;;6150609;23;20169;-91
2023/11/05 04:28:27;;;;;;;3.35;1.55;;;;;;;;;;6150893;23;20169;-92
2023/11/05 04:31:33;;;;;;;2.63;1.52;;;;;;;;;;6149462;23;20197;-93
2023/11/05 04:34:38;;;;;;;8.50;1.40;;;;;;;;;;6150511;23;20545;-91
2023/11/05 04:37:42;;;;;;;3.58;1.65;;;;;;;;;;6149622;23;20309;-91
2023/11/05 04:40:47;;;;;;;1.40;1.15;;;;;;;;;;6165306;23;20192;-90
2023/11/05 04:43:54;;;;;;;3.15;1.52;;;;;;;;;;6150992;23;20220;-92
2023/11/05 04:46:59;;;;;;;4.25;1.48;;;;;;;;;;6150687;23;20188;-91
2023/11/05 04:50:05;;;;;;;2.17;1.40;;;;;;;;;;6150191;23;20160;-92
2023/11/05 04:53:10;;;;;;;3.38;1.48;;;;;;;;;;6149001;23;20173;-92
2023/11/05 04:56:16;;;;;;;3.40;1.60;;;;;;;;;;6147478;23;20152;-89
2023/11/05 04:59:22;;;;;;;3.45;1.55;;;;;;;;;;6149170;23;20236;-92
2023/11/05 05:02:27;;;;;;;2.17;1.33;;;;;;;;;;6149138;23;20180;-92
2023/11/05 05:05:32;;;;;;;3.65;1.88;;;;;;;;;;6149544;23;20201;-91
2023/11/05 05:08:37;;;;;;;2.13;1.40;;;;;;;;;;6150011;23;20169;-92
2023/11/05 05:11:43;;;;;;;3.22;1.98;;;;;;;;;;6149374;23;20176;-88
2023/11/05 05:14:50;;;;;;;9.55;1.73;;;;;;;;;;6151578;23;20168;-92
2023/11/05 05:17:55;;;;;;;3.20;1.80;;;;;;;;;;6150617;23;20251;-92
2023/11/05 05:21:01;;;;;;;2.50;1.52;;;;;;;;;;6151141;23;20672;-92
2023/11/05 05:24:07;;;;;;;5.03;1.95;;;;;;;;;;6151294;23;20172;-92
2023/11/05 05:27:12;;;;;;;2.53;1.52;;;;;;;;;;6153707;23;20181;-91
2023/11/05 05:30:18;;;;;;;4.97;1.67;;;;;;;;;;6151489;23;20168;-91
2023/11/05 05:33:23;;;;;;;2.45;1.70;;;;;;;;;;6151893;23;20176;-91
2023/11/05 05:36:29;;;;;;;3.13;1.95;;;;;;;;;;6152361;23;20598;-91
2023/11/05 05:39:36;;;;;;;3.63;1.95;;;;;;;;;;6168987;23;20196;-92
2023/11/05 05:42:41;;;;;;;3.92;1.60;;;;;;;;;;6152281;23;20177;-92
2023/11/05 05:45:48;;;;;;;3.47;1.73;;;;;;;;;;6153495;23;20168;-91
2023/11/05 05:48:54;;;;;;;2.97;1.40;;;;;;;;;;6157062;23;20445;-94
2023/11/05 05:52:00;;;;;;;3.33;1.70;;;;;;;;;;6154334;23;20196;-93
2023/11/05 05:55:10;;;;;;;3.40;1.55;;;;;;;;;;6155343;23;20248;-91
2023/11/05 05:58:16;;;;;;;2.75;1.40;;;;;;;;;;6153606;23;20172;-92
2023/11/05 06:01:23;;;;;;;4.60;1.40;;;;;;;;;;6153163;23;20180;-93
2023/11/05 06:04:28;;;;;;;3.65;1.52;;;;;;;;;;6178374;23;20207;-91
2023/11/05 06:07:33;;;;;;;2.83;1.80;;;;;;;;;;6168233;23;20215;-92
2023/11/05 06:10:38;;;;;;;3.60;1.55;;;;;;;;;;6168747;23;20203;-91
2023/11/05 06:13:44;;;;;;;4.38;1.65;;;;;;;;;;6168549;23;20180;-92
2023/11/05 06:16:50;;;;;;;2.22;1.23;;;;;;;;;;6168910;23;20156;-90
2023/11/05 06:19:56;;;;;;;3.53;1.30;;;;;;;;;;6168672;23;20168;-92
2023/11/05 06:23:01;;;;;;;4.05;1.92;;;;;;;;;;6168095;23;20290;-90
2023/11/05 06:26:07;;;;;;;3.38;2.08;;;;;;;;;;6169141;23;20157;-92
2023/11/05 06:29:12;;;;;;;3.47;2.00;;;;;;;;;;6169452;23;20168;-91
2023/11/05 06:32:20;;;;;;;2.75;1.75;;;;;;;;;;6187650;23;20220;-92
2023/11/05 06:35:25;;;;;;;3.88;1.90;;;;;;;;;;6169574;23;20168;-92
2023/11/05 06:38:30;;;;;;;2.58;1.70;;;;;;;;;;6169231;23;20168;-89
2023/11/05 06:41:38;;;;;;;3.40;1.95;;;;;;;;;;6167938;23;20220;-89
2023/11/05 06:44:44;;;;;;;6.80;1.88;;;;;;;;;;6170120;23;20204;-92
2023/11/05 06:47:51;;;;;;;3.55;1.63;;;;;;;;;;6169858;23;20160;-90
2023/11/05 06:50:56;;;;;;;4.78;2.05;;;;;;;;;;6168327;23;20220;-91
2023/11/05 06:54:02;;;;;;;6.20;1.90;;;;;;;;;;6169368;23;20152;-93
2023/11/05 06:57:07;;;;;;;4.50;1.92;;;;;;;;;;6167824;23;20177;-91
2023/11/05 07:00:13;;;;;;;4.13;1.80;;;;;;;;;;6169736;23;20216;-92
2023/11/05 07:03:23;;;;;;;3.55;2.00;;;;;;;;;;6169654;23;20199;-91
2023/11/05 07:06:28;;;;;;;3.90;2.08;;;;;;;;;;6150498;23;20173;-89
2023/11/05 07:09:33;;;;;;;4.63;1.85;;;;;;;;;;6153375;23;20494;-92
2023/11/05 07:12:41;;;;;;;3.60;1.80;;;;;;;;;;6151412;23;20192;-92
2023/11/05 07:15:46;;;;;;;9.10;2.20;;;;;;;;;;6170520;23;20177;-92
2023/11/05 07:18:56;;;;;;;3.88;2.10;;;;;;;;;;6155097;23;20660;-92
2023/11/05 07:22:01;;;;;;;4.90;2.40;;;;;;;;;;6154726;23;20176;-92
2023/11/05 07:25:08;;;;;;;3.70;2.10;;;;;;;;;;6156097;23;20157;-92
2023/11/05 07:28:13;;;;;;;5.93;2.28;;;;;;;;;;6137937;23;20192;-90
2023/11/05 07:31:21;;;;;;;5.28;1.90;;;;;;;;;;6155900;23;20232;-92
2023/11/05 07:34:28;;;;;;;4.72;2.10;;;;;;;;;;6154120;23;20165;-91
2023/11/05 07:37:33;;;;;;;59.92;18.30;;;;;;;;;;6155507;23;20165;-91
2023/11/05 07:40:39;;;;;;;464.98;144.68;;;;;;;;;;6155300;23;20164;-91
2023/11/05 07:43:45;;;;;;;130.25;44.72;;;;;;;;;;6155303;23;20160;-92
2023/11/05 07:46:50;;;;;;;19.25;7.72;;;;;;;;;;6171923;23;20173;-91
2023/11/05 07:49:57;;;;;;;10.90;4.07;;;;;;;;;;6151856;23;20184;-90
2023/11/05 07:53:03;;;;;;;32.20;12.85;;;;;;;;;;6154793;23;20200;-91
2023/11/05 07:56:11;;;;;;;4.65;2.58;;;;;;;;;;6152750;23;20171;-90
2023/11/05 07:59:16;;;;;;;3.85;1.95;;;;;;;;;;6155830;23;20212;-91
2023/11/05 08:02:21;;;;;;;2.55;1.60;;;;;;;;;;6155493;23;20184;-90
2023/11/05 08:05:27;;;;;;;3.45;2.55;;;;;;;;;;6154020;23;20181;-87
2023/11/05 08:08:32;;;;;;;3.03;1.60;;;;;;;;;;6173142;23;20209;-90
2023/11/05 08:11:37;;;;;;;3.22;1.30;;;;;;;;;;6153935;23;20193;-91
2023/11/05 08:14:42;;;;;;;2.10;1.42;;;;;;;;;;6155123;23;20153;-92
2023/11/05 08:17:48;;;;;;;2.10;1.23;;;;;;;;;;6172529;23;20617;-89
2023/11/05 08:20:56;;;;;;;3.67;1.33;;;;;;;;;;6156005;23;20164;-92
2023/11/05 08:24:01;;;;;;;4.07;1.60;;;;;;;;;;6155560;23;20220;-93
2023/11/05 08:27:06;;;;;;;7.95;1.55;;;;;;;;;;6154622;23;20469;-91
2023/11/05 08:30:13;;;;;;;6.47;2.33;;;;;;;;;;6156128;23;20220;-92
2023/11/05 08:33:18;;;;;;;3.72;1.90;;;;;;;;;;6154753;23;20200;-91
2023/11/05 08:36:26;;;;;;;4.45;2.10;;;;;;;;;;6156781;23;20183;-90
2023/11/05 08:39:39;;;;;;;5.68;2.47;;;;;;;;;;6173931;23;20228;-91
2023/11/05 08:42:45;;;;;;;2.25;1.67;;;;;;;;;;6156097;23;20173;-90
2023/11/05 08:45:50;;;;;;;4.40;1.80;;;;;;;;;;6157663;23;20153;-90
2023/11/05 08:48:55;;;;;;;3.83;2.20;;;;;;;;;;6155990;23;20184;-91
2023/11/05 08:52:04;;;;;;;2.30;1.50;;;;;;;;;;6156132;23;20216;-90
2023/11/05 08:55:12;;;;;;;4.00;1.85;;;;;;;;;;6156583;23;20172;-92
2023/11/05 08:58:18;;;;;;;2.53;1.67;;;;;;;;;;6155218;23;20173;-91
2023/11/05 09:01:24;;;;;;;3.85;1.73;;;;;;;;;;6154951;23;20176;-90
2023/11/05 09:04:29;;;;;;;1.90;1.30;;;;;;;;;;6164038;23;20183;-91
2023/11/05 09:07:38;;;;;;;2.35;1.50;;;;;;;;;;6175102;23;20181;-90
2023/11/05 09:10:44;;;;;;;2.15;1.40;;;;;;;;;;6172721;23;20197;-92
2023/11/05 09:13:49;;;;;;;3.58;1.75;;;;;;;;;;6173861;23;20156;-92
2023/11/05 19:02:03;;;;;;;0.57;0.50;;;;;;;;;;6216138;23;20190;-90
2023/11/05 19:08:30;;;;;;;3.28;0.57;;;;;;;;;;6216088;23;20202;-89
2023/11/05 19:11:48;;;;;;;1.10;0.60;;;;;;;;;;6217519;22;20171;-90
2023/11/05 19:15:04;;;;;;;0.88;0.60;;;;;;;;;;6218077;23;20176;-89
2023/11/05 19:18:22;;;;;;;2.30;0.60;;;;;;;;;;6219373;23;20183;-91
2023/11/05 19:24:48;;;;;;;1.65;0.77;;;;;;;;;;6219110;23;20171;-92
2023/11/05 19:27:56;;;;;;;2.70;0.70;;;;;;;;;;6219152;23;20631;-90
2023/11/05 19:31:15;;;;;;;2.25;0.88;;;;;;;;;;6217750;23;20241;-91
2023/11/05 19:34:23;;;;;;;2.05;1.00;;;;;;;;;;6213827;23;20167;-91
2023/11/05 19:37:30;;;;;;;5.65;0.88;;;;;;;;;;6210214;23;20238;-91
2023/11/05 19:40:36;;;;;;;1.10;0.52;;;;;;;;;;6209914;23;20191;-91
2023/11/05 19:43:43;;;;;;;2.05;0.50;;;;;;;;;;6212324;23;20187;-93
2023/11/05 19:46:48;;;;;;;3.08;0.73;;;;;;;;;;6209856;23;20291;-92
2023/11/05 19:49:56;;;;;;;0.77;0.60;;;;;;;;;;6211891;23;20175;-92
2023/11/05 19:53:02;;;;;;;3.58;0.60;;;;;;;;;;6215995;23;20190;-90
2023/11/05 19:56:10;;;;;;;3.20;0.70;;;;;;;;;;6215748;23;20175;-92
2023/11/05 19:59:16;;;;;;;1.35;0.70;;;;;;;;;;6216613;23;20186;-91
2023/11/05 20:02:22;;;;;;;1.02;0.52;;;;;;;;;;6215471;23;20171;-93
2023/11/05 20:05:29;;;;;;;1.77;0.63;;;;;;;;;;6214056;23;20236;-92
2023/11/05 20:08:35;;;;;;;1.13;0.60;;;;;;;;;;6214056;23;20247;-90
2023/11/05 20:11:47;;;;;;;2.78;1.23;;;;;;;;;;6215091;23;20175;-91
2023/11/05 20:14:57;;;;;;;3.33;1.42;;;;;;;;;;6214200;23;20175;-90
2023/11/05 20:18:04;;;;;;;4.88;2.10;;;;;;;;;;6233181;23;20166;-92
2023/11/05 20:21:12;;;;;;;3.88;0.63;;;;;;;;;;6215099;23;20211;-90
2023/11/05 20:24:21;;;;;;;1.73;0.90;;;;;;;;;;6198551;23;20615;-88
2023/11/05 20:27:27;;;;;;;0.95;0.50;;;;;;;;;;6216414;23;20710;-91
2023/11/05 20:30:35;;;;;;;2.58;0.68;;;;;;;;;;6235046;23;20175;-88
2023/11/05 20:33:48;;;;;;;1.95;0.80;;;;;;;;;;6216921;23;20191;-90
2023/11/05 20:36:57;;;;;;;1.58;0.75;;;;;;;;;;6217501;23;20179;-89
2023/11/05 20:40:06;;;;;;;1.10;0.50;;;;;;;;;;6216826;23;20180;-90
2023/11/05 20:43:15;;;;;;;1.90;0.60;;;;;;;;;;6217764;23;20238;-90
2023/11/05 20:46:24;;;;;;;1.35;0.75;;;;;;;;;;6218019;23;20187;-91
2023/11/05 20:49:30;;;;;;;2.35;0.68;;;;;;;;;;6217535;23;20202;-89
2023/11/05 20:52:39;;;;;;;1.08;0.52;;;;;;;;;;6212346;23;20194;-91
2023/11/05 20:55:45;;;;;;;2.20;0.60;;;;;;;;;;6211977;23;20175;-89
2023/11/05 20:58:51;;;;;;;0.95;0.68;;;;;;;;;;6212105;23;20287;-89
2023/11/05 21:01:57;;;;;;;2.60;0.57;;;;;;;;;;6212005;23;20199;-90
2023/11/05 21:05:04;;;;;;;4.00;1.80;;;;;;;;;;6211091;23;20242;-89
2023/11/05 21:08:11;;;;;;;0.98;0.70;;;;;;;;;;6212700;23;20311;-90
2023/11/05 21:11:22;;;;;;;1.98;0.75;;;;;;;;;;6210823;23;20171;-90
